sensor_id;sensor_type;location;lat;lon;timestamp;pressure;altitude;pressure_sealevel;temperature
73937;BMP180;59249;59.736;30.568;2023-05-10T00:00:45;101968.00;;;6.60
73937;BMP180;59249;59.736;30.568;2023-05-10T00:03:14;101968.00;;;6.60
73937;BMP180;59249;59.736;30.568;2023-05-10T00:05:43;101969.00;;;6.50
73937;BMP180;59249;59.736;30.568;2023-05-10T00:08:12;101976.00;;;6.50
73937;BMP180;59249;59.736;30.568;2023-05-10T00:10:41;101969.00;;;6.50
73937;BMP180;59249;59.736;30.568;2023-05-10T00:13:09;101966.00;;;6.50
73937;BMP180;59249;59.736;30.568;2023-05-10T00:15:40;101967.00;;;6.40
73937;BMP180;59249;59.736;30.568;2023-05-10T00:18:09;101967.00;;;6.30
73937;BMP180;59249;59.736;30.568;2023-05-10T00:20:38;101974.00;;;6.30
73937;BMP180;59249;59.736;30.568;2023-05-10T00:23:06;101970.00;;;6.20
73937;BMP180;59249;59.736;30.568;2023-05-10T00:25:35;101962.00;;;6.20
73937;BMP180;59249;59.736;30.568;2023-05-10T00:28:04;101965.00;;;6.10
73937;BMP180;59249;59.736;30.568;2023-05-10T00:30:33;101966.00;;;6.10
73937;BMP180;59249;59.736;30.568;2023-05-10T00:33:03;101970.00;;;6.10
73937;BMP180;59249;59.736;30.568;2023-05-10T00:35:32;101959.00;;;6.10
73937;BMP180;59249;59.736;30.568;2023-05-10T00:38:00;101966.00;;;6.10
73937;BMP180;59249;59.736;30.568;2023-05-10T00:40:29;101962.00;;;6.10
73937;BMP180;59249;59.736;30.568;2023-05-10T00:43:03;101958.00;;;6.10
73937;BMP180;59249;59.736;30.568;2023-05-10T00:45:33;101970.00;;;6.10
73937;BMP180;59249;59.736;30.568;2023-05-10T00:48:05;101962.00;;;6.10
73937;BMP180;59249;59.736;30.568;2023-05-10T00:50:37;101956.00;;;6.10
73937;BMP180;59249;59.736;30.568;2023-05-10T00:53:07;101958.00;;;6.10
73937;BMP180;59249;59.736;30.568;2023-05-10T00:55:37;101965.00;;;6.10
73937;BMP180;59249;59.736;30.568;2023-05-10T00:58:06;101952.00;;;6.10
73937;BMP180;59249;59.736;30.568;2023-05-10T01:00:35;101945.00;;;6.00
73937;BMP180;59249;59.736;30.568;2023-05-10T01:03:07;101950.00;;;6.00
73937;BMP180;59249;59.736;30.568;2023-05-10T01:05:36;101953.00;;;5.90
73937;BMP180;59249;59.736;30.568;2023-05-10T01:08:05;101950.00;;;5.80
73937;BMP180;59249;59.736;30.568;2023-05-10T01:10:35;101941.00;;;5.70
73937;BMP180;59249;59.736;30.568;2023-05-10T01:13:04;101948.00;;;5.70
73937;BMP180;59249;59.736;30.568;2023-05-10T01:15:33;101947.00;;;5.60
73937;BMP180;59249;59.736;30.568;2023-05-10T01:18:03;101944.00;;;5.60
73937;BMP180;59249;59.736;30.568;2023-05-10T01:20:38;101942.00;;;5.50
73937;BMP180;59249;59.736;30.568;2023-05-10T01:23:31;101936.00;;;5.50
73937;BMP180;59249;59.736;30.568;2023-05-10T01:29:38;101944.00;;;5.40
73937;BMP180;59249;59.736;30.568;2023-05-10T01:32:39;101936.00;;;5.30
73937;BMP180;59249;59.736;30.568;2023-05-10T01:35:17;101942.00;;;5.30
73937;BMP180;59249;59.736;30.568;2023-05-10T01:37:59;101938.00;;;5.30
73937;BMP180;59249;59.736;30.568;2023-05-10T01:40:37;101942.00;;;5.30
73937;BMP180;59249;59.736;30.568;2023-05-10T01:43:16;101944.00;;;5.20
73937;BMP180;59249;59.736;30.568;2023-05-10T01:45:59;101943.00;;;5.30
73937;BMP180;59249;59.736;30.568;2023-05-10T01:48:42;101935.00;;;5.30
73937;BMP180;59249;59.736;30.568;2023-05-10T01:51:19;101936.00;;;5.30
73937;BMP180;59249;59.736;30.568;2023-05-10T01:53:54;101939.00;;;5.40
73937;BMP180;59249;59.736;30.568;2023-05-10T01:56:31;101920.00;;;5.40
73937;BMP180;59249;59.736;30.568;2023-05-10T01:59:06;101931.00;;;5.40
73937;BMP180;59249;59.736;30.568;2023-05-10T02:01:40;101931.00;;;5.40
73937;BMP180;59249;59.736;30.568;2023-05-10T02:04:13;101928.00;;;5.50
73937;BMP180;59249;59.736;30.568;2023-05-10T02:06:46;101932.00;;;5.60
73937;BMP180;59249;59.736;30.568;2023-05-10T02:09:17;101929.00;;;5.60
73937;BMP180;59249;59.736;30.568;2023-05-10T02:11:50;101938.00;;;5.70
73937;BMP180;59249;59.736;30.568;2023-05-10T02:14:19;101934.00;;;5.90
73937;BMP180;59249;59.736;30.568;2023-05-10T02:16:53;101929.00;;;6.20
73937;BMP180;59249;59.736;30.568;2023-05-10T02:19:26;101937.00;;;6.60
73937;BMP180;59249;59.736;30.568;2023-05-10T02:22:17;101938.00;;;7.00
73937;BMP180;59249;59.736;30.568;2023-05-10T02:24:47;101943.00;;;7.40
73937;BMP180;59249;59.736;30.568;2023-05-10T02:27:19;101955.00;;;7.70
73937;BMP180;59249;59.736;30.568;2023-05-10T02:29:49;101949.00;;;8.00
73937;BMP180;59249;59.736;30.568;2023-05-10T02:32:19;101950.00;;;8.30
73937;BMP180;59249;59.736;30.568;2023-05-10T02:34:52;101951.00;;;8.50
73937;BMP180;59249;59.736;30.568;2023-05-10T02:37:24;101960.00;;;8.70
73937;BMP180;59249;59.736;30.568;2023-05-10T02:39:55;101957.00;;;9.00
73937;BMP180;59249;59.736;30.568;2023-05-10T02:42:27;101956.00;;;9.20
73937;BMP180;59249;59.736;30.568;2023-05-10T02:45:04;101965.00;;;9.40
73937;BMP180;59249;59.736;30.568;2023-05-10T02:47:35;101956.00;;;9.50
73937;BMP180;59249;59.736;30.568;2023-05-10T02:50:07;101955.00;;;9.60
73937;BMP180;59249;59.736;30.568;2023-05-10T02:52:39;101962.00;;;9.70
73937;BMP180;59249;59.736;30.568;2023-05-10T02:55:14;101967.00;;;9.70
73937;BMP180;59249;59.736;30.568;2023-05-10T02:57:50;101982.00;;;9.50
73937;BMP180;59249;59.736;30.568;2023-05-10T03:00:24;101979.00;;;9.10
73937;BMP180;59249;59.736;30.568;2023-05-10T03:02:53;101965.00;;;9.10
73937;BMP180;59249;59.736;30.568;2023-05-10T03:05:25;101983.00;;;8.90
73937;BMP180;59249;59.736;30.568;2023-05-10T03:07:54;101971.00;;;8.90
73937;BMP180;59249;59.736;30.568;2023-05-10T03:10:27;101979.00;;;9.00
73937;BMP180;59249;59.736;30.568;2023-05-10T03:13:07;101975.00;;;8.90
73937;BMP180;59249;59.736;30.568;2023-05-10T03:15:47;101976.00;;;8.90
73937;BMP180;59249;59.736;30.568;2023-05-10T03:18:22;101967.00;;;8.60
73937;BMP180;59249;59.736;30.568;2023-05-10T03:20:57;101966.00;;;8.50
73937;BMP180;59249;59.736;30.568;2023-05-10T03:23:35;101964.00;;;8.30
73937;BMP180;59249;59.736;30.568;2023-05-10T03:26:17;101970.00;;;8.20
73937;BMP180;59249;59.736;30.568;2023-05-10T03:28:49;101963.00;;;8.20
73937;BMP180;59249;59.736;30.568;2023-05-10T03:31:19;101963.00;;;8.20
73937;BMP180;59249;59.736;30.568;2023-05-10T03:33:50;101966.00;;;8.10
73937;BMP180;59249;59.736;30.568;2023-05-10T03:36:25;101954.00;;;8.10
73937;BMP180;59249;59.736;30.568;2023-05-10T03:38:55;101954.00;;;8.00
73937;BMP180;59249;59.736;30.568;2023-05-10T03:41:24;101957.00;;;7.90
73937;BMP180;59249;59.736;30.568;2023-05-10T03:43:53;101962.00;;;7.90
73937;BMP180;59249;59.736;30.568;2023-05-10T03:46:22;101957.00;;;8.00
73937;BMP180;59249;59.736;30.568;2023-05-10T03:48:51;101959.00;;;8.00
73937;BMP180;59249;59.736;30.568;2023-05-10T03:51:20;101958.00;;;8.10
73937;BMP180;59249;59.736;30.568;2023-05-10T03:53:50;101959.00;;;8.10
73937;BMP180;59249;59.736;30.568;2023-05-10T03:56:19;101960.00;;;8.10
73937;BMP180;59249;59.736;30.568;2023-05-10T03:58:50;101967.00;;;8.20
73937;BMP180;59249;59.736;30.568;2023-05-10T04:01:19;101968.00;;;8.20
73937;BMP180;59249;59.736;30.568;2023-05-10T04:03:48;101960.00;;;8.20
73937;BMP180;59249;59.736;30.568;2023-05-10T04:06:17;101962.00;;;8.30
73937;BMP180;59249;59.736;30.568;2023-05-10T04:08:46;101959.00;;;8.20
73937;BMP180;59249;59.736;30.568;2023-05-10T04:11:16;101964.00;;;8.20
73937;BMP180;59249;59.736;30.568;2023-05-10T04:13:45;101964.00;;;8.30
73937;BMP180;59249;59.736;30.568;2023-05-10T04:16:13;101974.00;;;8.30
73937;BMP180;59249;59.736;30.568;2023-05-10T04:18:42;101966.00;;;8.40
73937;BMP180;59249;59.736;30.568;2023-05-10T04:21:11;101972.00;;;8.40
73937;BMP180;59249;59.736;30.568;2023-05-10T04:23:40;101966.00;;;8.50
73937;BMP180;59249;59.736;30.568;2023-05-10T04:26:09;101972.00;;;8.60
73937;BMP180;59249;59.736;30.568;2023-05-10T04:28:39;101969.00;;;8.60
73937;BMP180;59249;59.736;30.568;2023-05-10T04:31:09;101973.00;;;8.70
73937;BMP180;59249;59.736;30.568;2023-05-10T04:33:38;101975.00;;;8.90
73937;BMP180;59249;59.736;30.568;2023-05-10T04:36:07;101976.00;;;9.00
73937;BMP180;59249;59.736;30.568;2023-05-10T04:38:40;101979.00;;;9.10
73937;BMP180;59249;59.736;30.568;2023-05-10T04:41:10;101975.00;;;9.20
73937;BMP180;59249;59.736;30.568;2023-05-10T04:43:40;101977.00;;;9.30
73937;BMP180;59249;59.736;30.568;2023-05-10T04:46:09;101975.00;;;9.40
73937;BMP180;59249;59.736;30.568;2023-05-10T04:48:38;101972.00;;;9.50
73937;BMP180;59249;59.736;30.568;2023-05-10T04:51:07;101976.00;;;9.60
73937;BMP180;59249;59.736;30.568;2023-05-10T04:53:36;101986.00;;;9.80
73937;BMP180;59249;59.736;30.568;2023-05-10T04:56:05;101980.00;;;9.90
73937;BMP180;59249;59.736;30.568;2023-05-10T04:58:35;101984.00;;;10.00
73937;BMP180;59249;59.736;30.568;2023-05-10T05:01:09;101985.00;;;10.10
73937;BMP180;59249;59.736;30.568;2023-05-10T05:03:38;101983.00;;;10.20
73937;BMP180;59249;59.736;30.568;2023-05-10T05:06:07;101980.00;;;10.30
73937;BMP180;59249;59.736;30.568;2023-05-10T05:08:36;101982.00;;;10.40
73937;BMP180;59249;59.736;30.568;2023-05-10T05:11:04;101976.00;;;10.50
73937;BMP180;59249;59.736;30.568;2023-05-10T05:13:33;101974.00;;;10.60
73937;BMP180;59249;59.736;30.568;2023-05-10T05:16:02;101981.00;;;10.70
73937;BMP180;59249;59.736;30.568;2023-05-10T05:18:33;101981.00;;;10.80
73937;BMP180;59249;59.736;30.568;2023-05-10T05:21:02;101990.00;;;10.90
73937;BMP180;59249;59.736;30.568;2023-05-10T05:23:31;101981.00;;;11.10
73937;BMP180;59249;59.736;30.568;2023-05-10T05:25:59;101981.00;;;11.10
73937;BMP180;59249;59.736;30.568;2023-05-10T05:28:28;101967.00;;;11.30
73937;BMP180;59249;59.736;30.568;2023-05-10T05:31:00;101976.00;;;11.40
73937;BMP180;59249;59.736;30.568;2023-05-10T05:33:29;101975.00;;;11.50
73937;BMP180;59249;59.736;30.568;2023-05-10T05:36:00;101980.00;;;11.70
73937;BMP180;59249;59.736;30.568;2023-05-10T05:38:30;101986.00;;;11.80
73937;BMP180;59249;59.736;30.568;2023-05-10T05:40:59;101975.00;;;11.90
73937;BMP180;59249;59.736;30.568;2023-05-10T05:43:28;101978.00;;;12.10
73937;BMP180;59249;59.736;30.568;2023-05-10T05:45:57;101975.00;;;12.20
73937;BMP180;59249;59.736;30.568;2023-05-10T05:48:26;101983.00;;;12.30
73937;BMP180;59249;59.736;30.568;2023-05-10T05:50:55;101978.00;;;12.40
73937;BMP180;59249;59.736;30.568;2023-05-10T05:53:26;101984.00;;;12.50
73937;BMP180;59249;59.736;30.568;2023-05-10T05:55:55;101986.00;;;12.60
73937;BMP180;59249;59.736;30.568;2023-05-10T05:58:25;101975.00;;;12.70
73937;BMP180;59249;59.736;30.568;2023-05-10T06:00:54;101979.00;;;12.70
73937;BMP180;59249;59.736;30.568;2023-05-10T06:03:23;101986.00;;;12.90
73937;BMP180;59249;59.736;30.568;2023-05-10T06:05:52;101986.00;;;13.00
73937;BMP180;59249;59.736;30.568;2023-05-10T06:08:21;101986.00;;;13.10
73937;BMP180;59249;59.736;30.568;2023-05-10T06:10:51;101979.00;;;13.10
73937;BMP180;59249;59.736;30.568;2023-05-10T06:13:20;101988.00;;;13.20
73937;BMP180;59249;59.736;30.568;2023-05-10T06:15:49;101974.00;;;13.30
73937;BMP180;59249;59.736;30.568;2023-05-10T06:18:18;101967.00;;;13.40
73937;BMP180;59249;59.736;30.568;2023-05-10T06:20:47;101983.00;;;13.40
73937;BMP180;59249;59.736;30.568;2023-05-10T06:23:15;101985.00;;;13.50
73937;BMP180;59249;59.736;30.568;2023-05-10T06:25:44;101982.00;;;13.50
73937;BMP180;59249;59.736;30.568;2023-05-10T06:28:15;101975.00;;;13.60
73937;BMP180;59249;59.736;30.568;2023-05-10T06:30:43;101980.00;;;13.60
73937;BMP180;59249;59.736;30.568;2023-05-10T06:33:12;101981.00;;;13.70
73937;BMP180;59249;59.736;30.568;2023-05-10T06:35:43;101969.00;;;13.70
73937;BMP180;59249;59.736;30.568;2023-05-10T06:38:11;101979.00;;;13.70
73937;BMP180;59249;59.736;30.568;2023-05-10T06:40:41;101977.00;;;13.80
73937;BMP180;59249;59.736;30.568;2023-05-10T06:43:10;101979.00;;;13.90
73937;BMP180;59249;59.736;30.568;2023-05-10T06:45:40;101985.00;;;14.00
73937;BMP180;59249;59.736;30.568;2023-05-10T06:48:09;101984.00;;;14.10
73937;BMP180;59249;59.736;30.568;2023-05-10T06:50:38;101985.00;;;14.20
73937;BMP180;59249;59.736;30.568;2023-05-10T06:53:08;101989.00;;;14.20
73937;BMP180;59249;59.736;30.568;2023-05-10T06:55:37;101991.00;;;14.30
73937;BMP180;59249;59.736;30.568;2023-05-10T06:58:06;101995.00;;;14.40
73937;BMP180;59249;59.736;30.568;2023-05-10T07:00:34;101998.00;;;14.30
73937;BMP180;59249;59.736;30.568;2023-05-10T07:03:07;101988.00;;;14.40
73937;BMP180;59249;59.736;30.568;2023-05-10T07:05:36;101987.00;;;14.60
73937;BMP180;59249;59.736;30.568;2023-05-10T07:08:05;101989.00;;;14.70
73937;BMP180;59249;59.736;30.568;2023-05-10T07:10:35;101990.00;;;14.80
73937;BMP180;59249;59.736;30.568;2023-05-10T07:13:04;101994.00;;;14.80
73937;BMP180;59249;59.736;30.568;2023-05-10T07:15:34;101993.00;;;14.90
73937;BMP180;59249;59.736;30.568;2023-05-10T07:18:03;101988.00;;;14.90
73937;BMP180;59249;59.736;30.568;2023-05-10T07:20:34;101999.00;;;14.90
73937;BMP180;59249;59.736;30.568;2023-05-10T07:23:03;101980.00;;;14.90
73937;BMP180;59249;59.736;30.568;2023-05-10T07:25:32;102000.00;;;15.00
73937;BMP180;59249;59.736;30.568;2023-05-10T07:28:01;102003.00;;;15.00
73937;BMP180;59249;59.736;30.568;2023-05-10T07:30:29;102003.00;;;15.10
73937;BMP180;59249;59.736;30.568;2023-05-10T07:32:58;102002.00;;;15.20
73937;BMP180;59249;59.736;30.568;2023-05-10T07:35:27;101990.00;;;15.30
73937;BMP180;59249;59.736;30.568;2023-05-10T07:37:57;102009.00;;;15.40
73937;BMP180;59249;59.736;30.568;2023-05-10T07:40:27;101998.00;;;15.50
73937;BMP180;59249;59.736;30.568;2023-05-10T07:42:57;102011.00;;;15.70
73937;BMP180;59249;59.736;30.568;2023-05-10T07:45:27;101999.00;;;15.60
73937;BMP180;59249;59.736;30.568;2023-05-10T07:47:56;102006.00;;;15.50
73937;BMP180;59249;59.736;30.568;2023-05-10T07:50:25;101993.00;;;15.70
73937;BMP180;59249;59.736;30.568;2023-05-10T07:52:54;101996.00;;;15.80
73937;BMP180;59249;59.736;30.568;2023-05-10T07:55:24;102015.00;;;15.80
73937;BMP180;59249;59.736;30.568;2023-05-10T07:57:53;101999.00;;;15.80
73937;BMP180;59249;59.736;30.568;2023-05-10T08:00:22;101997.00;;;15.90
73937;BMP180;59249;59.736;30.568;2023-05-10T08:02:50;101992.00;;;16.00
73937;BMP180;59249;59.736;30.568;2023-05-10T08:05:20;102011.00;;;16.10
73937;BMP180;59249;59.736;30.568;2023-05-10T08:07:48;102006.00;;;16.20
73937;BMP180;59249;59.736;30.568;2023-05-10T08:10:18;102009.00;;;16.20
73937;BMP180;59249;59.736;30.568;2023-05-10T08:12:48;102011.00;;;16.30
73937;BMP180;59249;59.736;30.568;2023-05-10T08:15:20;102009.00;;;16.30
73937;BMP180;59249;59.736;30.568;2023-05-10T08:17:49;102011.00;;;16.40
73937;BMP180;59249;59.736;30.568;2023-05-10T08:20:17;102001.00;;;16.40
73937;BMP180;59249;59.736;30.568;2023-05-10T08:22:47;102011.00;;;16.50
73937;BMP180;59249;59.736;30.568;2023-05-10T08:25:18;102014.00;;;16.60
73937;BMP180;59249;59.736;30.568;2023-05-10T08:27:48;102013.00;;;16.60
73937;BMP180;59249;59.736;30.568;2023-05-10T08:30:16;102010.00;;;16.50
73937;BMP180;59249;59.736;30.568;2023-05-10T08:32:45;102011.00;;;16.60
73937;BMP180;59249;59.736;30.568;2023-05-10T08:35:15;102024.00;;;16.40
73937;BMP180;59249;59.736;30.568;2023-05-10T08:37:44;102012.00;;;16.50
73937;BMP180;59249;59.736;30.568;2023-05-10T08:40:19;102016.00;;;16.40
73937;BMP180;59249;59.736;30.568;2023-05-10T08:42:55;101997.00;;;16.50
73937;BMP180;59249;59.736;30.568;2023-05-10T08:45:32;102015.00;;;16.60
73937;BMP180;59249;59.736;30.568;2023-05-10T08:48:06;102011.00;;;16.70
73937;BMP180;59249;59.736;30.568;2023-05-10T08:50:36;102006.00;;;16.60
73937;BMP180;59249;59.736;30.568;2023-05-10T08:53:10;102012.00;;;16.80
73937;BMP180;59249;59.736;30.568;2023-05-10T08:55:40;102004.00;;;16.80
73937;BMP180;59249;59.736;30.568;2023-05-10T08:58:11;102002.00;;;16.80
73937;BMP180;59249;59.736;30.568;2023-05-10T09:00:40;102011.00;;;16.90
73937;BMP180;59249;59.736;30.568;2023-05-10T09:03:09;102005.00;;;16.80
73937;BMP180;59249;59.736;30.568;2023-05-10T09:05:39;102010.00;;;16.90
73937;BMP180;59249;59.736;30.568;2023-05-10T09:08:08;102002.00;;;16.90
73937;BMP180;59249;59.736;30.568;2023-05-10T09:10:38;102003.00;;;16.90
73937;BMP180;59249;59.736;30.568;2023-05-10T09:13:11;102006.00;;;17.00
73937;BMP180;59249;59.736;30.568;2023-05-10T09:15:43;102003.00;;;17.10
73937;BMP180;59249;59.736;30.568;2023-05-10T09:18:14;101994.00;;;17.10
73937;BMP180;59249;59.736;30.568;2023-05-10T09:20:43;101996.00;;;17.10
73937;BMP180;59249;59.736;30.568;2023-05-10T09:23:13;102003.00;;;17.10
73937;BMP180;59249;59.736;30.568;2023-05-10T09:25:44;102003.00;;;17.10
73937;BMP180;59249;59.736;30.568;2023-05-10T09:28:14;102000.00;;;17.00
73937;BMP180;59249;59.736;30.568;2023-05-10T09:30:43;101991.00;;;16.90
73937;BMP180;59249;59.736;30.568;2023-05-10T09:33:24;101999.00;;;16.90
73937;BMP180;59249;59.736;30.568;2023-05-10T09:35:53;102001.00;;;17.00
73937;BMP180;59249;59.736;30.568;2023-05-10T09:38:22;101988.00;;;17.10
73937;BMP180;59249;59.736;30.568;2023-05-10T09:40:52;101987.00;;;17.20
73937;BMP180;59249;59.736;30.568;2023-05-10T09:43:24;101991.00;;;17.30
73937;BMP180;59249;59.736;30.568;2023-05-10T09:45:52;101989.00;;;17.20
73937;BMP180;59249;59.736;30.568;2023-05-10T09:48:23;101985.00;;;17.30
73937;BMP180;59249;59.736;30.568;2023-05-10T09:50:57;102000.00;;;17.40
73937;BMP180;59249;59.736;30.568;2023-05-10T09:53:26;101996.00;;;17.40
73937;BMP180;59249;59.736;30.568;2023-05-10T09:55:55;101985.00;;;17.40
73937;BMP180;59249;59.736;30.568;2023-05-10T09:58:25;101997.00;;;17.40
73937;BMP180;59249;59.736;30.568;2023-05-10T10:00:54;101976.00;;;17.50
73937;BMP180;59249;59.736;30.568;2023-05-10T10:03:23;101992.00;;;17.40
73937;BMP180;59249;59.736;30.568;2023-05-10T10:05:56;101999.00;;;17.60
73937;BMP180;59249;59.736;30.568;2023-05-10T10:08:25;101990.00;;;17.50
73937;BMP180;59249;59.736;30.568;2023-05-10T10:10:54;101987.00;;;17.50
73937;BMP180;59249;59.736;30.568;2023-05-10T10:13:25;101990.00;;;17.60
73937;BMP180;59249;59.736;30.568;2023-05-10T10:15:54;101985.00;;;17.60
73937;BMP180;59249;59.736;30.568;2023-05-10T10:18:23;101980.00;;;17.70
73937;BMP180;59249;59.736;30.568;2023-05-10T10:20:54;101996.00;;;17.70
73937;BMP180;59249;59.736;30.568;2023-05-10T10:23:25;101966.00;;;17.70
73937;BMP180;59249;59.736;30.568;2023-05-10T10:25:55;101976.00;;;17.70
73937;BMP180;59249;59.736;30.568;2023-05-10T10:28:32;101980.00;;;17.80
73937;BMP180;59249;59.736;30.568;2023-05-10T10:31:17;101983.00;;;17.80
73937;BMP180;59249;59.736;30.568;2023-05-10T10:33:59;101982.00;;;17.80
73937;BMP180;59249;59.736;30.568;2023-05-10T10:36:30;101986.00;;;17.90
73937;BMP180;59249;59.736;30.568;2023-05-10T10:39:01;101967.00;;;17.90
73937;BMP180;59249;59.736;30.568;2023-05-10T10:41:32;101969.00;;;17.80
73937;BMP180;59249;59.736;30.568;2023-05-10T10:44:35;101975.00;;;17.80
73937;BMP180;59249;59.736;30.568;2023-05-10T10:47:07;101979.00;;;18.00
73937;BMP180;59249;59.736;30.568;2023-05-10T10:50:01;101971.00;;;17.90
73937;BMP180;59249;59.736;30.568;2023-05-10T10:52:33;101974.00;;;18.00
73937;BMP180;59249;59.736;30.568;2023-05-10T10:55:05;101969.00;;;18.00
73937;BMP180;59249;59.736;30.568;2023-05-10T10:57:47;101975.00;;;17.80
73937;BMP180;59249;59.736;30.568;2023-05-10T11:00:31;101963.00;;;17.90
73937;BMP180;59249;59.736;30.568;2023-05-10T11:03:03;101969.00;;;18.00
73937;BMP180;59249;59.736;30.568;2023-05-10T11:05:36;101983.00;;;18.20
73937;BMP180;59249;59.736;30.568;2023-05-10T11:08:13;101981.00;;;18.10
73937;BMP180;59249;59.736;30.568;2023-05-10T11:10:52;101980.00;;;18.00
73937;BMP180;59249;59.736;30.568;2023-05-10T11:13:39;101988.00;;;18.10
73937;BMP180;59249;59.736;30.568;2023-05-10T11:16:17;101977.00;;;18.10
73937;BMP180;59249;59.736;30.568;2023-05-10T11:18:57;101992.00;;;17.90
73937;BMP180;59249;59.736;30.568;2023-05-10T11:21:29;101969.00;;;17.90
73937;BMP180;59249;59.736;30.568;2023-05-10T11:23:59;101981.00;;;18.10
73937;BMP180;59249;59.736;30.568;2023-05-10T11:26:35;101964.00;;;18.20
73937;BMP180;59249;59.736;30.568;2023-05-10T11:29:04;101959.00;;;18.30
73937;BMP180;59249;59.736;30.568;2023-05-10T11:31:35;101965.00;;;18.50
73937;BMP180;59249;59.736;30.568;2023-05-10T11:34:11;101968.00;;;18.20
73937;BMP180;59249;59.736;30.568;2023-05-10T11:36:41;101963.00;;;18.40
73937;BMP180;59249;59.736;30.568;2023-05-10T11:39:10;101964.00;;;18.40
73937;BMP180;59249;59.736;30.568;2023-05-10T11:41:39;101946.00;;;18.50
73937;BMP180;59249;59.736;30.568;2023-05-10T11:44:09;101951.00;;;18.60
73937;BMP180;59249;59.736;30.568;2023-05-10T11:46:39;101946.00;;;18.70
73937;BMP180;59249;59.736;30.568;2023-05-10T11:49:08;101943.00;;;18.90
73937;BMP180;59249;59.736;30.568;2023-05-10T11:51:38;101937.00;;;18.90
73937;BMP180;59249;59.736;30.568;2023-05-10T11:54:10;101945.00;;;18.80
73937;BMP180;59249;59.736;30.568;2023-05-10T11:56:40;101958.00;;;18.80
73937;BMP180;59249;59.736;30.568;2023-05-10T11:59:09;101940.00;;;18.80
73937;BMP180;59249;59.736;30.568;2023-05-10T12:01:39;101932.00;;;18.90
73937;BMP180;59249;59.736;30.568;2023-05-10T12:04:08;101938.00;;;18.70
73937;BMP180;59249;59.736;30.568;2023-05-10T12:06:40;101938.00;;;18.70
73937;BMP180;59249;59.736;30.568;2023-05-10T12:09:09;101929.00;;;18.80
73937;BMP180;59249;59.736;30.568;2023-05-10T12:11:39;101941.00;;;18.90
73937;BMP180;59249;59.736;30.568;2023-05-10T12:14:10;101931.00;;;18.90
73937;BMP180;59249;59.736;30.568;2023-05-10T12:16:43;101935.00;;;18.80
73937;BMP180;59249;59.736;30.568;2023-05-10T12:19:12;101934.00;;;18.80
73937;BMP180;59249;59.736;30.568;2023-05-10T12:21:47;101920.00;;;18.90
73937;BMP180;59249;59.736;30.568;2023-05-10T12:24:16;101927.00;;;18.90
73937;BMP180;59249;59.736;30.568;2023-05-10T12:26:45;101932.00;;;19.00
73937;BMP180;59249;59.736;30.568;2023-05-10T12:29:16;101925.00;;;19.00
73937;BMP180;59249;59.736;30.568;2023-05-10T12:31:51;101925.00;;;19.00
73937;BMP180;59249;59.736;30.568;2023-05-10T12:34:31;101924.00;;;19.10
73937;BMP180;59249;59.736;30.568;2023-05-10T12:37:02;101926.00;;;19.10
73937;BMP180;59249;59.736;30.568;2023-05-10T12:39:39;101916.00;;;19.30
73937;BMP180;59249;59.736;30.568;2023-05-10T12:42:09;101915.00;;;19.20
73937;BMP180;59249;59.736;30.568;2023-05-10T12:44:39;101917.00;;;19.20
73937;BMP180;59249;59.736;30.568;2023-05-10T12:47:09;101907.00;;;19.20
73937;BMP180;59249;59.736;30.568;2023-05-10T12:49:38;101910.00;;;19.20
73937;BMP180;59249;59.736;30.568;2023-05-10T12:52:07;101914.00;;;19.30
73937;BMP180;59249;59.736;30.568;2023-05-10T12:54:36;101914.00;;;19.50
73937;BMP180;59249;59.736;30.568;2023-05-10T12:57:05;101904.00;;;19.40
73937;BMP180;59249;59.736;30.568;2023-05-10T12:59:34;101905.00;;;19.40
73937;BMP180;59249;59.736;30.568;2023-05-10T13:02:04;101913.00;;;19.30
73937;BMP180;59249;59.736;30.568;2023-05-10T13:04:35;101907.00;;;19.30
73937;BMP180;59249;59.736;30.568;2023-05-10T13:07:07;101920.00;;;19.40
73937;BMP180;59249;59.736;30.568;2023-05-10T13:09:36;101909.00;;;19.30
73937;BMP180;59249;59.736;30.568;2023-05-10T13:12:05;101915.00;;;19.40
73937;BMP180;59249;59.736;30.568;2023-05-10T13:14:36;101908.00;;;19.50
73937;BMP180;59249;59.736;30.568;2023-05-10T13:17:05;101906.00;;;19.50
73937;BMP180;59249;59.736;30.568;2023-05-10T13:19:36;101895.00;;;19.40
73937;BMP180;59249;59.736;30.568;2023-05-10T13:22:05;101908.00;;;19.50
73937;BMP180;59249;59.736;30.568;2023-05-10T13:24:34;101906.00;;;19.50
73937;BMP180;59249;59.736;30.568;2023-05-10T13:27:03;101910.00;;;19.50
73937;BMP180;59249;59.736;30.568;2023-05-10T13:29:34;101919.00;;;19.40
73937;BMP180;59249;59.736;30.568;2023-05-10T13:32:05;101903.00;;;19.40
73937;BMP180;59249;59.736;30.568;2023-05-10T13:34:35;101899.00;;;19.40
73937;BMP180;59249;59.736;30.568;2023-05-10T13:37:05;101898.00;;;19.50
73937;BMP180;59249;59.736;30.568;2023-05-10T13:39:33;101904.00;;;19.50
73937;BMP180;59249;59.736;30.568;2023-05-10T13:42:04;101896.00;;;19.60
73937;BMP180;59249;59.736;30.568;2023-05-10T13:44:33;101900.00;;;19.60
73937;BMP180;59249;59.736;30.568;2023-05-10T13:47:03;101895.00;;;19.50
73937;BMP180;59249;59.736;30.568;2023-05-10T13:49:31;101897.00;;;19.60
73937;BMP180;59249;59.736;30.568;2023-05-10T13:52:02;101885.00;;;19.50
73937;BMP180;59249;59.736;30.568;2023-05-10T13:54:33;101889.00;;;19.40
73937;BMP180;59249;59.736;30.568;2023-05-10T13:57:02;101900.00;;;19.30
73937;BMP180;59249;59.736;30.568;2023-05-10T13:59:31;101894.00;;;19.10
73937;BMP180;59249;59.736;30.568;2023-05-10T14:02:00;101886.00;;;19.20
73937;BMP180;59249;59.736;30.568;2023-05-10T14:04:30;101901.00;;;19.00
73937;BMP180;59249;59.736;30.568;2023-05-10T14:06:59;101891.00;;;19.00
73937;BMP180;59249;59.736;30.568;2023-05-10T14:09:29;101903.00;;;18.90
73937;BMP180;59249;59.736;30.568;2023-05-10T14:11:57;101891.00;;;19.10
73937;BMP180;59249;59.736;30.568;2023-05-10T14:14:26;101892.00;;;19.00